Time;durP1;ratioP1;P1;durP2;ratioP2;P2;SDS_P1;SDS_P2;PMS_P1;PMS_P2;Temp;Humidity;BMP_temperature;BMP_pressure;BME280_temperature;BME280_humidity;BME280_pressure;Samples;Min_cycle;Max_cycle;Signal;HPM_P1;HPM_P2
2022/01/06 00:00:39;;;;;;;41.03;31.88;;;;;;;5.78;100.00;99387.63;5011364;28;20103;-67
2022/01/06 00:03:04;;;;;;;44.17;33.13;;;;;;;5.65;100.00;99390.38;5011182;28;20054;-67
2022/01/06 00:05:29;;;;;;;39.72;30.33;;;;;;;5.69;100.00;99397.88;5011463;28;20038;-68
2022/01/06 00:07:55;;;;;;;37.28;27.55;;;;;;;5.23;100.00;99371.78;5011393;28;20463;-68
2022/01/06 00:10:21;;;;;;;33.50;25.88;;;;;;;5.43;100.00;99401.72;5011255;28;20030;-68
2022/01/06 00:13:05;;;;;;;35.95;25.45;;;;;;;5.48;100.00;99413.38;5026297;28;20446;-68
2022/01/06 00:25:57;;;;;;;35.97;25.42;;;;;;;5.55;100.00;99398.97;5011160;28;20566;-69
2022/01/06 00:28:23;;;;;;;39.05;25.60;;;;;;;5.52;100.00;99393.97;5011238;28;20356;-69
2022/01/06 00:30:49;;;;;;;40.08;26.08;;;;;;;5.60;100.00;99394.69;5011157;28;20036;-66
2022/01/06 00:33:15;;;;;;;40.90;25.10;;;;;;;5.41;100.00;99351.31;5010893;28;20111;-67
2022/01/06 00:35:40;;;;;;;36.10;23.63;;;;;;;5.17;100.00;99329.91;5009475;28;20483;-67
2022/01/06 00:38:07;;;;;;;36.72;24.75;;;;;;;5.49;100.00;99401.59;5009340;28;20057;-67
2022/01/06 00:40:34;;;;;;;36.20;24.10;;;;;;;5.03;100.00;99354.47;5025841;28;20034;-67
2022/01/06 00:42:59;;;;;;;35.47;24.67;;;;;;;5.31;100.00;99410.28;5011194;28;20492;-67
2022/01/06 00:45:25;;;;;;;33.92;24.27;;;;;;;4.92;100.00;99351.31;5025890;28;20026;-66
2022/01/06 00:47:50;;;;;;;34.53;24.42;;;;;;;4.98;100.00;99366.31;5010607;28;20088;-67
2022/01/06 00:50:15;;;;;;;34.20;25.52;;;;;;;5.05;100.00;99413.22;5010584;28;20096;-67
2022/01/06 00:52:41;;;;;;;36.35;25.13;;;;;;;4.93;100.00;99382.34;5025617;28;20030;-67
2022/01/06 00:55:07;;;;;;;36.92;26.77;;;;;;;4.91;100.00;99367.25;5010316;28;20120;-67
2022/01/06 00:57:33;;;;;;;38.30;26.23;;;;;;;5.39;100.00;99416.03;5010293;28;20034;-67
2022/01/06 00:59:58;;;;;;;42.28;26.90;;;;;;;5.37;100.00;99419.44;5010997;28;20121;-67
2022/01/06 01:02:33;;;;;;;39.66;27.26;;;;;;;5.50;100.00;99418.38;4674837;22;10002890;-69
2022/01/06 01:04:58;;;;;;;37.80;28.40;;;;;;;5.50;100.00;99410.81;5013329;28;20045;-67
2022/01/06 01:07:23;;;;;;;37.08;28.20;;;;;;;4.97;100.00;99369.69;5008236;28;20022;-66
2022/01/06 01:09:49;;;;;;;41.42;27.08;;;;;;;4.82;100.00;99357.34;5010762;28;20030;-66
2022/01/06 01:12:14;;;;;;;37.53;26.60;;;;;;;5.02;100.00;99362.91;5010337;28;20045;-66
2022/01/06 01:17:38;;;;;;;47.72;33.25;;;;;;;5.17;100.00;99366.84;4987802;28;20432;-67
2022/01/06 01:20:04;;;;;;;48.53;32.33;;;;;;;5.24;100.00;99343.22;5009419;28;20029;-66
2022/01/06 01:22:29;;;;;;;45.22;30.33;;;;;;;5.60;100.00;99402.25;5010358;28;20026;-66
2022/01/06 01:24:55;;;;;;;44.45;31.05;;;;;;;4.97;100.00;99331.09;5009207;28;20586;-67
2022/01/06 01:27:22;;;;;;;42.17;29.92;;;;;;;5.66;100.00;99397.94;5010678;28;20026;-66
2022/01/06 01:30:02;;;;;;;41.72;30.27;;;;;;;5.05;100.00;99362.03;5008701;28;20037;-69
2022/01/06 01:32:35;;;;;;;42.80;29.58;;;;;;;4.84;100.00;99363.19;5010701;28;20061;-69
2022/01/06 01:35:02;;;;;;;39.55;27.95;;;;;;;5.10;100.00;99377.88;5008820;28;20037;-68
2022/01/06 01:37:31;;;;;;;46.10;31.38;;;;;;;5.16;100.00;99408.03;5010616;28;20034;-69
2022/01/06 01:39:57;;;;;;;41.95;30.45;;;;;;;5.02;100.00;99393.13;5010156;28;20038;-68
2022/01/06 01:42:23;;;;;;;41.45;29.50;;;;;;;5.04;100.00;99352.78;5010361;28;20068;-66
2022/01/06 01:44:50;;;;;;;40.58;29.35;;;;;;;4.78;100.00;99344.81;5010750;28;20026;-66
2022/01/06 01:47:16;;;;;;;42.67;29.50;;;;;;;4.80;100.00;99330.50;5010223;28;20029;-67
2022/01/06 01:49:52;;;;;;;39.22;28.35;;;;;;;5.59;100.00;99401.41;4992739;28;20415;-66
2022/01/06 01:52:17;;;;;;;36.95;27.08;;;;;;;5.52;100.00;99364.56;4992533;28;20030;-66
2022/01/06 01:54:42;;;;;;;42.22;28.08;;;;;;;5.73;100.00;99378.47;5010075;28;20435;-67
2022/01/06 01:57:08;;;;;;;40.22;29.25;;;;;;;5.50;100.00;99337.72;4992750;28;20630;-66
2022/01/06 01:59:33;;;;;;;40.50;28.17;;;;;;;5.63;100.00;99366.88;5010124;28;20033;-66
2022/01/06 02:01:59;;;;;;;42.92;31.08;;;;;;;5.12;100.00;99280.47;5010033;28;20125;-66
2022/01/06 02:04:24;;;;;;;45.85;30.80;;;;;;;5.56;100.00;99371.22;5010532;28;20120;-66
2022/01/06 02:06:50;;;;;;;39.85;28.33;;;;;;;5.44;100.00;99313.47;5010348;28;20036;-66
2022/01/06 02:09:15;;;;;;;46.25;30.02;;;;;;;5.24;100.00;99308.81;5010242;28;20022;-67
2022/01/06 02:11:41;;;;;;;42.65;29.92;;;;;;;5.40;100.00;99309.34;4996086;28;20029;-66
2022/01/06 02:14:07;;;;;;;47.20;31.80;;;;;;;5.44;100.00;99360.53;4995841;28;20389;-66
2022/01/06 02:16:32;;;;;;;44.10;30.20;;;;;;;5.36;100.00;99353.09;5012971;28;20037;-66
2022/01/06 02:18:58;;;;;;;43.67;30.50;;;;;;;5.45;100.00;99374.81;5013394;28;20488;-67
2022/01/06 02:21:24;;;;;;;44.97;29.10;;;;;;;4.95;100.00;99293.31;5013363;28;20484;-67
2022/01/06 02:23:49;;;;;;;42.35;30.13;;;;;;;5.20;100.00;99372.69;5013332;28;20049;-67
2022/01/06 02:26:15;;;;;;;44.03;28.67;;;;;;;5.04;100.00;99370.44;5013204;28;20041;-67
2022/01/06 02:28:41;;;;;;;38.92;28.20;;;;;;;4.68;100.00;99318.94;4995612;28;20030;-68
2022/01/06 02:31:07;;;;;;;40.83;28.55;;;;;;;4.65;100.00;99331.59;5013440;28;20080;-67
2022/01/06 02:33:33;;;;;;;37.90;28.08;;;;;;;4.79;100.00;99364.94;4995458;28;20113;-66
2022/01/06 02:35:58;;;;;;;36.15;25.27;;;;;;;4.67;100.00;99366.81;5013025;28;20125;-69
2022/01/06 02:38:24;;;;;;;37.22;25.85;;;;;;;4.57;100.00;99361.06;5013336;28;20096;-66
2022/01/06 02:40:50;;;;;;;39.97;25.35;;;;;;;4.30;100.00;99311.94;5012954;28;20434;-67
2022/01/06 02:43:18;;;;;;;40.50;26.77;;;;;;;4.19;100.00;99307.91;4995444;28;20034;-67
2022/01/06 02:45:47;;;;;;;37.97;26.73;;;;;;;4.40;100.00;99340.31;5013254;28;20099;-67
2022/01/06 02:48:14;;;;;;;38.92;25.85;;;;;;;4.41;100.00;99294.19;4995276;28;20036;-67
2022/01/06 02:50:48;;;;;;;37.63;26.48;;;;;;;4.14;100.00;99254.34;5012955;28;20076;-67
2022/01/06 02:53:15;;;;;;;42.13;28.77;;;;;;;4.61;100.00;99299.78;5012733;28;20554;-66
2022/01/06 02:55:50;;;;;;;43.67;29.88;;;;;;;4.69;100.00;99353.34;5012600;28;20041;-66
2022/01/06 02:58:17;;;;;;;47.60;29.40;;;;;;;4.12;100.00;99329.78;5012755;28;20040;-67
2022/01/06 03:00:42;;;;;;;45.80;28.55;;;;;;;4.32;100.00;99357.19;5012543;28;20096;-67
2022/01/06 03:03:08;;;;;;;40.95;26.55;;;;;;;3.96;100.00;99288.09;5012885;28;20038;-66
2022/01/06 03:05:33;;;;;;;38.13;26.13;;;;;;;3.92;100.00;99303.25;5012641;28;20446;-66
2022/01/06 03:07:59;;;;;;;43.88;26.95;;;;;;;4.37;100.00;99373.91;5012476;28;20022;-66
2022/01/06 03:10:26;;;;;;;51.17;28.08;;;;;;;4.38;100.00;99368.03;5012721;28;20120;-67
2022/01/06 03:12:51;;;;;;;49.85;28.70;;;;;;;3.74;100.00;99276.66;4994757;28;20038;-67
2022/01/06 03:15:19;;;;;;;51.08;27.98;;;;;;;4.43;100.00;99367.97;4994839;28;20041;-67
2022/01/06 03:17:49;;;;;;;53.97;29.75;;;;;;;4.63;100.00;99350.91;4994781;28;20033;-67
2022/01/06 03:20:16;;;;;;;59.70;31.40;;;;;;;4.41;100.00;99362.13;5011990;28;20037;-67
2022/01/06 03:22:42;;;;;;;86.30;34.22;;;;;;;4.09;100.00;99298.84;5012332;28;20108;-67
2022/01/06 03:25:09;;;;;;;72.22;34.78;;;;;;;4.10;100.00;99311.38;5012261;28;20050;-67
2022/01/06 03:27:35;;;;;;;92.40;37.90;;;;;;;4.18;100.00;99312.13;5012067;28;20026;-67
2022/01/06 03:30:04;;;;;;;62.58;34.17;;;;;;;4.25;100.00;99298.63;5012260;28;20037;-67
2022/01/06 03:32:29;;;;;;;54.78;32.35;;;;;;;4.57;100.00;99357.72;5012065;28;20483;-67
2022/01/06 03:34:55;;;;;;;60.42;34.47;;;;;;;4.64;100.00;99366.81;5011899;28;20093;-67
2022/01/06 03:37:20;;;;;;;57.03;32.67;;;;;;;4.32;100.00;99347.13;5010897;28;20025;-67
2022/01/06 03:39:46;;;;;;;48.28;31.17;;;;;;;4.47;100.00;99351.13;5012332;28;20487;-67
2022/01/06 03:42:12;;;;;;;46.75;30.48;;;;;;;4.18;100.00;99349.84;5012156;28;20032;-67
2022/01/06 03:44:38;;;;;;;45.50;28.92;;;;;;;4.23;100.00;99315.41;5010699;28;20022;-68
2022/01/06 03:47:05;;;;;;;47.05;28.67;;;;;;;4.44;100.00;99392.25;5010509;28;20561;-67
2022/01/06 03:49:30;;;;;;;51.35;29.88;;;;;;;4.37;100.00;99386.50;5010287;28;20025;-67
2022/01/06 03:51:56;;;;;;;43.03;28.27;;;;;;;4.56;100.00;99386.22;5010635;28;20088;-67
2022/01/06 03:54:21;;;;;;;43.67;27.73;;;;;;;4.52;100.00;99324.22;5011781;28;20037;-67
2022/01/06 03:56:48;;;;;;;38.00;25.80;;;;;;;4.84;100.00;99390.03;5011515;28;20034;-67
2022/01/06 03:59:18;;;;;;;43.40;27.75;;;;;;;4.33;100.00;99318.63;5010425;28;20432;-68
2022/01/06 04:01:44;;;;;;;42.92;26.80;;;;;;;4.80;100.00;99383.38;5011962;28;20073;-68
2022/01/06 04:04:10;;;;;;;39.42;25.45;;;;;;;4.50;100.00;99309.16;5009776;28;20077;-67
2022/01/06 04:06:35;;;;;;;39.25;26.52;;;;;;;4.49;100.00;99394.72;5011641;28;20030;-67
2022/01/06 04:09:02;;;;;;;36.35;25.27;;;;;;;4.24;100.00;99326.28;5010019;28;20034;-67
2022/01/06 04:11:27;;;;;;;37.08;26.90;;;;;;;4.75;100.00;99368.38;5009799;28;20037;-68
2022/01/06 04:13:53;;;;;;;46.90;31.15;;;;;;;4.11;100.00;99292.09;5011579;28;20415;-67
2022/01/06 04:16:18;;;;;;;46.08;28.90;;;;;;;3.97;100.00;99336.69;5011369;28;20137;-67
2022/01/06 04:18:44;;;;;;;41.53;25.90;;;;;;;4.55;100.00;99412.25;5008306;28;20523;-67
2022/01/06 04:21:10;;;;;;;37.53;24.92;;;;;;;4.08;100.00;99347.47;4974395;28;20038;-67
2022/01/06 04:23:36;;;;;;;38.75;26.25;;;;;;;4.28;100.00;99370.66;4973211;28;20034;-68
2022/01/06 04:26:01;;;;;;;42.97;27.83;;;;;;;4.25;100.00;99341.38;4991450;28;20515;-67
2022/01/06 04:28:27;;;;;;;63.72;38.85;;;;;;;4.62;100.00;99399.56;4974059;28;20031;-67
2022/01/06 04:30:52;;;;;;;69.63;42.95;;;;;;;4.21;100.00;99337.25;4991329;28;20488;-67
2022/01/06 04:33:18;;;;;;;60.00;38.13;;;;;;;4.06;100.00;99359.22;4990572;28;20056;-67
2022/01/06 04:35:44;;;;;;;65.25;41.60;;;;;;;4.22;100.00;99363.19;4991495;28;20074;-66
2022/01/06 04:38:10;;;;;;;61.63;38.92;;;;;;;4.12;100.00;99341.56;4991137;28;20045;-68
2022/01/06 04:40:35;;;;;;;54.55;35.28;;;;;;;4.41;100.00;99414.97;4991296;28;20030;-67
2022/01/06 04:43:01;;;;;;;54.75;35.65;;;;;;;4.30;100.00;99425.16;4991519;28;20030;-67
2022/01/06 04:45:26;;;;;;;62.63;43.17;;;;;;;4.25;100.00;99426.06;4991575;28;20092;-67
2022/01/06 04:47:52;;;;;;;69.72;49.30;;;;;;;4.35;100.00;99418.38;4991291;28;20461;-67
2022/01/06 04:50:17;;;;;;;67.25;45.78;;;;;;;4.14;100.00;99420.31;4974020;28;20139;-68
2022/01/06 04:52:43;;;;;;;70.95;47.45;;;;;;;4.00;100.00;99389.47;4991281;28;20462;-68
2022/01/06 04:55:08;;;;;;;63.00;45.22;;;;;;;4.03;100.00;99364.28;4973423;28;20412;-68
2022/01/06 04:57:34;;;;;;;55.65;36.58;;;;;;;4.09;100.00;99412.81;4991499;28;20030;-69
2022/01/06 05:00:00;;;;;;;52.00;36.65;;;;;;;3.99;100.00;99375.22;4991258;28;20496;-68
2022/01/06 05:02:25;;;;;;;62.40;43.15;;;;;;;3.85;100.00;99438.22;4973084;28;20085;-66
2022/01/06 05:04:51;;;;;;;48.10;34.53;;;;;;;3.63;100.00;99342.94;4991296;28;20030;-66
2022/01/06 05:07:16;;;;;;;49.50;33.90;;;;;;;4.01;100.00;99434.72;4973734;28;20109;-65
2022/01/06 05:09:42;;;;;;;44.65;32.47;;;;;;;3.94;100.00;99399.59;4990727;28;20485;-65
2022/01/06 05:12:07;;;;;;;48.55;33.90;;;;;;;4.17;100.00;99383.41;4991030;28;20030;-65
2022/01/06 05:14:33;;;;;;;54.10;36.55;;;;;;;3.86;100.00;99437.38;4990893;28;20033;-66
2022/01/06 05:16:59;;;;;;;50.78;36.05;;;;;;;4.00;100.00;99386.97;4973083;28;20467;-67
2022/01/06 05:19:25;;;;;;;46.05;34.33;;;;;;;4.01;100.00;99401.19;4991210;28;20038;-66
2022/01/06 05:21:52;;;;;;;52.38;37.05;;;;;;;4.16;100.00;99457.16;4991013;28;20026;-67
2022/01/06 05:24:18;;;;;;;56.20;39.92;;;;;;;4.18;100.00;99364.94;4994984;28;20022;-66
2022/01/06 05:26:44;;;;;;;62.67;44.25;;;;;;;4.03;100.00;99452.28;4992539;28;20484;-66
2022/01/06 05:29:11;;;;;;;61.28;42.28;;;;;;;3.79;100.00;99442.47;5010134;28;20084;-66
2022/01/06 05:31:37;;;;;;;55.55;40.25;;;;;;;3.97;100.00;99394.53;5010054;28;20064;-67
2022/01/06 05:34:03;;;;;;;66.05;48.10;;;;;;;3.88;100.00;99390.41;5010221;28;20026;-67
2022/01/06 05:36:29;;;;;;;53.30;36.60;;;;;;;4.38;100.00;99457.75;4992757;28;20033;-67
2022/01/06 05:38:54;;;;;;;50.83;35.05;;;;;;;4.12;100.00;99444.66;5027224;28;20030;-68
2022/01/06 05:41:21;;;;;;;45.17;31.40;;;;;;;4.21;100.00;99434.47;5012034;28;20392;-67
2022/01/06 05:43:46;;;;;;;46.08;32.28;;;;;;;4.31;100.00;99451.13;5030662;28;20518;-67
2022/01/06 05:46:12;;;;;;;45.17;29.92;;;;;;;4.36;100.00;99464.47;5015582;28;20052;-66
2022/01/06 05:48:37;;;;;;;44.90;32.88;;;;;;;4.23;100.00;99460.44;5016339;28;20051;-68
2022/01/06 05:51:03;;;;;;;46.15;29.55;;;;;;;5.62;100.00;99425.75;5025755;28;20032;-69
2022/01/06 05:53:29;;;;;;;53.35;37.55;;;;;;;4.37;100.00;99409.13;5013984;28;20029;-68
2022/01/06 05:55:55;;;;;;;51.00;36.50;;;;;;;4.39;100.00;99455.25;5013597;28;20364;-68
2022/01/06 05:58:25;;;;;;;48.83;34.75;;;;;;;5.20;100.00;99448.25;5011643;28;20030;-67
2022/01/06 06:00:50;;;;;;;57.70;39.95;;;;;;;4.28;100.00;99424.31;5004219;28;20045;-68
2022/01/06 06:03:16;;;;;;;54.88;38.40;;;;;;;4.05;100.00;99407.84;4995483;28;20049;-67
2022/01/06 06:05:42;;;;;;;53.00;37.20;;;;;;;4.31;100.00;99436.03;5012623;28;20029;-67
2022/01/06 06:08:11;;;;;;;58.08;37.67;;;;;;;4.18;100.00;99445.41;5012817;28;20483;-68
2022/01/06 06:10:37;;;;;;;53.25;36.78;;;;;;;4.49;100.00;99466.03;5013115;28;20029;-67
2022/01/06 06:13:03;;;;;;;49.20;36.13;;;;;;;5.03;100.00;99460.25;4995208;28;20148;-67
2022/01/06 06:15:35;;;;;;;56.20;38.58;;;;;;;4.73;100.00;99450.63;4994920;28;20099;-68
2022/01/06 06:18:12;;;;;;;53.67;36.92;;;;;;;5.02;100.00;99460.28;5012417;28;20037;-67
2022/01/06 06:20:41;;;;;;;62.53;38.05;;;;;;;4.96;100.00;99466.25;4994620;28;20459;-68
2022/01/06 06:23:07;;;;;;;60.72;36.92;;;;;;;5.00;100.00;99459.47;4994661;28;20030;-67
2022/01/06 06:25:33;;;;;;;63.05;39.08;;;;;;;5.27;100.00;99459.91;5012451;28;20029;-67
2022/01/06 06:27:58;;;;;;;67.60;38.65;;;;;;;4.94;100.00;99394.91;4994706;28;20025;-68
2022/01/06 06:30:24;;;;;;;66.22;37.30;;;;;;;5.00;100.00;99421.69;5012729;28;20041;-68
2022/01/06 06:32:49;;;;;;;53.53;32.00;;;;;;;5.74;100.00;99469.25;5012971;28;20401;-68
2022/01/06 06:35:15;;;;;;;57.97;34.75;;;;;;;5.93;100.00;99460.50;4995497;28;20038;-68
2022/01/06 06:37:40;;;;;;;55.03;34.33;;;;;;;5.81;100.00;99432.97;5013420;28;20132;-67
2022/01/06 06:40:07;;;;;;;73.18;40.85;;;;;;;5.58;100.00;99414.88;5013148;28;20380;-67
2022/01/06 06:42:33;;;;;;;72.10;42.45;;;;;;;6.19;100.00;99469.28;5012790;28;20523;-67
2022/01/06 06:44:58;;;;;;;59.00;34.63;;;;;;;6.18;100.00;99485.31;5012800;28;20172;-67
2022/01/06 06:47:24;;;;;;;47.58;32.17;;;;;;;6.75;100.00;99476.59;5012865;28;20471;-67
2022/01/06 06:49:49;;;;;;;55.10;36.10;;;;;;;6.70;100.00;99489.31;5012948;28;20105;-67
2022/01/06 06:52:15;;;;;;;51.95;33.47;;;;;;;6.58;100.00;99455.88;5012838;28;20483;-67
2022/01/06 06:54:41;;;;;;;49.67;31.20;;;;;;;7.12;100.00;99431.97;5012307;28;20105;-67
2022/01/06 06:57:07;;;;;;;42.67;31.08;;;;;;;6.80;100.00;99463.00;5011951;28;20106;-68
2022/01/06 06:59:32;;;;;;;51.15;34.22;;;;;;;6.88;100.00;99523.47;5012863;28;20412;-68
2022/01/06 07:01:58;;;;;;;55.83;34.97;;;;;;;6.81;100.00;99529.50;4994876;28;20116;-68
2022/01/06 07:04:23;;;;;;;62.85;42.50;;;;;;;6.20;100.00;99512.16;5012713;28;20037;-68
2022/01/06 07:06:49;;;;;;;61.95;40.90;;;;;;;6.79;100.00;99505.97;4994876;28;20049;-68
2022/01/06 07:09:14;;;;;;;58.53;40.30;;;;;;;6.77;100.00;99467.28;5012279;28;20084;-67
2022/01/06 07:11:40;;;;;;;57.17;41.13;;;;;;;6.25;100.00;99529.75;5012266;28;20034;-67
2022/01/06 07:14:05;;;;;;;70.82;50.55;;;;;;;6.79;100.00;99523.66;4994855;28;20032;-67
2022/01/06 07:16:31;;;;;;;63.90;44.33;;;;;;;6.20;100.00;99453.31;5012577;28;20037;-67
2022/01/06 07:18:56;;;;;;;55.50;39.03;;;;;;;6.59;100.00;99485.34;5012587;28;20381;-68
2022/01/06 07:21:21;;;;;;;53.05;38.17;;;;;;;6.88;100.00;99524.31;5012286;28;20068;-68
2022/01/06 07:23:47;;;;;;;47.50;34.15;;;;;;;6.73;100.00;99476.63;5012285;28;20432;-67
2022/01/06 07:26:13;;;;;;;57.05;40.50;;;;;;;7.38;100.00;99527.44;4994227;28;20079;-68
2022/01/06 07:28:38;;;;;;;70.88;51.28;;;;;;;7.57;100.00;99532.03;5012077;28;20072;-68
2022/01/06 07:31:04;;;;;;;138.73;89.63;;;;;;;6.84;100.00;99494.91;5011727;28;20038;-67
2022/01/06 07:33:31;;;;;;;104.40;73.07;;;;;;;7.54;100.00;99537.19;4994538;28;20519;-67
2022/01/06 07:35:56;;;;;;;118.88;75.10;;;;;;;7.28;100.00;99500.69;5011973;28;20034;-67
2022/01/06 07:38:22;;;;;;;110.13;75.97;;;;;;;7.03;100.00;99498.69;5012200;28;20068;-68
2022/01/06 07:40:48;;;;;;;106.07;75.60;;;;;;;6.94;100.00;99483.75;4994077;28;20066;-67
2022/01/06 07:43:14;;;;;;;91.13;62.63;;;;;;;7.32;100.00;99530.09;5012172;28;20057;-68
2022/01/06 07:45:39;;;;;;;88.20;60.28;;;;;;;7.56;100.00;99558.22;5011910;28;20068;-67
2022/01/06 07:48:15;;;;;;;77.63;56.22;;;;;;;7.44;100.00;99550.06;4994091;28;20048;-67
2022/01/06 07:50:40;;;;;;;82.07;60.60;;;;;;;7.58;100.00;99548.06;5011655;28;20125;-67
2022/01/06 07:53:06;;;;;;;102.88;71.80;;;;;;;7.72;100.00;99561.22;5011684;28;20034;-67
2022/01/06 07:55:31;;;;;;;131.57;100.03;;;;;;;7.09;100.00;99548.28;5011361;28;20420;-67
2022/01/06 07:57:56;;;;;;;131.25;104.88;;;;;;;6.91;100.00;99556.25;4993845;28;20480;-68
2022/01/06 08:00:23;;;;;;;121.07;93.15;;;;;;;6.92;100.00;99563.78;5011741;28;20026;-68
2022/01/06 08:02:49;;;;;;;126.80;99.32;;;;;;;7.20;100.00;99550.59;5011912;28;20050;-68
2022/01/06 08:05:15;;;;;;;149.68;107.60;;;;;;;7.60;100.00;99569.91;5011385;28;20033;-68
2022/01/06 08:07:41;;;;;;;130.25;98.50;;;;;;;7.38;100.00;99519.84;5011390;28;20029;-68
2022/01/06 08:10:09;;;;;;;132.35;99.07;;;;;;;7.76;100.00;99558.56;5011306;28;20026;-67
2022/01/06 08:12:34;;;;;;;115.35;88.93;;;;;;;8.05;100.00;99573.06;4993476;28;20036;-67
2022/01/06 08:15:00;;;;;;;127.13;101.82;;;;;;;7.85;100.00;99570.16;4993486;28;20419;-68
2022/01/06 08:17:25;;;;;;;138.35;105.22;;;;;;;7.65;100.00;99574.84;4993712;28;20025;-67
2022/01/06 08:19:52;;;;;;;130.70;102.13;;;;;;;8.41;100.00;99589.06;5011294;28;20551;-68
2022/01/06 08:22:18;;;;;;;130.13;101.40;;;;;;;8.11;100.00;99600.75;5011241;28;20033;-67
2022/01/06 08:24:44;;;;;;;137.30;109.32;;;;;;;8.16;100.00;99585.47;5010755;28;20045;-68
2022/01/06 08:27:09;;;;;;;130.80;106.38;;;;;;;7.95;100.00;99556.44;5011061;28;20030;-68
2022/01/06 08:29:38;;;;;;;135.85;114.00;;;;;;;8.51;100.00;99600.63;5011108;28;20084;-68
2022/01/06 08:32:05;;;;;;;113.07;91.95;;;;;;;8.26;100.00;99544.69;4993324;28;20038;-67
2022/01/06 08:34:30;;;;;;;114.97;89.28;;;;;;;8.46;100.00;99572.03;5010928;28;20496;-67
2022/01/06 08:36:57;;;;;;;102.90;76.03;;;;;;;8.73;100.00;99591.59;5010734;28;20049;-68
2022/01/06 08:39:22;;;;;;;75.30;59.13;;;;;;;8.43;100.00;99512.19;5010649;28;20064;-67
2022/01/06 08:41:50;;;;;;;81.43;61.50;;;;;;;8.90;100.00;99603.78;5011004;28;20036;-67
2022/01/06 08:44:16;;;;;;;83.32;59.45;;;;;;;8.82;100.00;99588.78;5010786;28;20462;-67
2022/01/06 08:46:41;;;;;;;73.28;57.35;;;;;;;8.64;100.00;99509.06;4993110;28;20030;-67
2022/01/06 08:49:11;;;;;;;78.10;57.22;;;;;;;8.43;100.00;99557.78;5010736;28;20423;-67
2022/01/06 08:51:40;;;;;;;80.03;58.67;;;;;;;9.20;100.00;99580.13;5010637;28;20080;-67
2022/01/06 08:54:06;;;;;;;74.15;54.42;;;;;;;8.95;100.00;99561.41;5010563;28;20121;-67
2022/01/06 08:56:33;;;;;;;75.15;55.17;;;;;;;9.18;100.00;99548.91;5010844;28;20037;-67
2022/01/06 08:58:58;;;;;;;71.55;51.03;;;;;;;9.95;100.00;99595.56;5010427;28;20427;-67
2022/01/06 09:01:24;;;;;;;68.82;49.53;;;;;;;9.96;100.00;99550.69;5011008;28;20033;-67
2022/01/06 09:03:49;;;;;;;68.22;51.63;;;;;;;9.96;100.00;99556.63;5010541;28;20431;-67
2022/01/06 09:06:15;;;;;;;71.80;54.78;;;;;;;9.93;100.00;99604.94;4992486;28;20058;-68
2022/01/06 09:08:40;;;;;;;56.53;43.38;;;;;;;10.39;100.00;99592.44;5010968;28;20105;-67
2022/01/06 09:11:06;;;;;;;56.67;40.13;;;;;;;9.91;100.00;99555.09;5010671;28;20033;-67
2022/01/06 09:13:31;;;;;;;45.92;30.05;;;;;;;10.25;100.00;99609.84;4992770;28;20034;-67
2022/01/06 09:15:56;;;;;;;45.03;31.85;;;;;;;10.52;100.00;99605.56;5010384;28;20033;-68
2022/01/06 09:18:22;;;;;;;46.55;33.78;;;;;;;10.25;100.00;99559.06;4993439;28;20026;-67
2022/01/06 09:20:48;;;;;;;42.25;31.48;;;;;;;10.65;100.00;99601.72;5014359;28;20034;-67
2022/01/06 09:23:14;;;;;;;45.15;33.13;;;;;;;10.63;100.00;99605.19;4996700;28;20056;-68
2022/01/06 09:25:39;;;;;;;38.90;28.25;;;;;;;10.69;100.00;99608.38;4996922;28;20038;-68
2022/01/06 09:28:04;;;;;;;38.03;28.42;;;;;;;10.44;100.00;99604.97;4996741;28;20068;-68
2022/01/06 09:30:30;;;;;;;43.63;30.60;;;;;;;10.71;100.00;99608.31;4996795;28;20034;-68
2022/01/06 09:32:55;;;;;;;41.13;30.35;;;;;;;10.84;100.00;99590.03;4996930;28;20026;-67
2022/01/06 09:35:22;;;;;;;40.88;32.85;;;;;;;11.11;100.00;99589.03;5013975;28;20030;-67
2022/01/06 09:37:47;;;;;;;42.33;28.35;;;;;;;10.43;100.00;99571.16;4996271;28;20030;-67
2022/01/06 09:40:14;;;;;;;39.45;28.60;;;;;;;10.45;100.00;99561.75;5014302;28;20036;-67
2022/01/06 09:42:43;;;;;;;43.63;30.80;;;;;;;10.91;100.00;99605.91;4996260;28;20496;-68
2022/01/06 09:45:09;;;;;;;40.22;30.55;;;;;;;10.15;100.00;99519.59;5013964;28;20526;-68
2022/01/06 09:47:36;;;;;;;41.88;31.92;;;;;;;10.89;100.00;99608.50;4996418;28;20404;-67
2022/01/06 09:50:02;;;;;;;41.83;30.52;;;;;;;10.90;100.00;99579.63;5013487;28;20037;-68
2022/01/06 09:52:28;;;;;;;41.83;29.88;;;;;;;10.72;100.00;99604.88;5014138;28;20034;-67
2022/01/06 09:54:53;;;;;;;44.08;33.35;;;;;;;10.55;100.00;99554.63;5013956;28;20026;-68
2022/01/06 09:57:19;;;;;;;42.85;31.05;;;;;;;10.65;100.00;99603.44;4996188;28;20038;-67
2022/01/06 09:59:45;;;;;;;40.90;31.13;;;;;;;10.96;100.00;99596.38;4996296;28;20064;-68
2022/01/06 10:02:16;;;;;;;35.03;25.77;;;;;;;10.59;100.00;99603.66;5013749;28;20538;-68
2022/01/06 10:04:43;;;;;;;38.50;30.90;;;;;;;10.77;100.00;99577.59;5013679;28;20355;-68
2022/01/06 10:07:09;;;;;;;50.63;35.50;;;;;;;10.86;100.00;99551.81;5013926;28;20081;-68
2022/01/06 10:09:37;;;;;;;39.90;31.08;;;;;;;10.94;100.00;99548.13;5013611;28;20033;-68
2022/01/06 10:12:08;;;;;;;42.92;30.73;;;;;;;11.31;100.00;99576.41;5013706;28;20038;-68
2022/01/06 10:14:45;;;;;;;47.03;36.05;;;;;;;11.30;100.00;99594.28;5013467;28;20084;-68
2022/01/06 10:17:14;;;;;;;32.42;24.77;;;;;;;11.07;100.00;99579.03;4995733;28;20145;-68
2022/01/06 10:19:40;;;;;;;41.05;29.88;;;;;;;11.51;100.00;99596.00;5013659;28;20126;-68
2022/01/06 10:22:15;;;;;;;45.47;32.05;;;;;;;11.07;100.00;99530.72;4995699;28;20030;-68
2022/01/06 10:24:44;;;;;;;43.17;29.55;;;;;;;11.63;100.00;99559.91;5013518;28;20060;-68
2022/01/06 10:27:10;;;;;;;32.72;25.75;;;;;;;11.65;100.00;99592.94;4995603;28;20124;-68
2022/01/06 10:29:37;;;;;;;30.52;24.90;;;;;;;11.65;100.00;99600.56;5012606;28;20105;-68
2022/01/06 10:32:07;;;;;;;32.90;26.02;;;;;;;11.90;100.00;99604.72;5012595;28;20038;-68
2022/01/06 10:34:34;;;;;;;37.10;25.58;;;;;;;11.68;100.00;99588.63;5013174;28;20030;-68
2022/01/06 10:37:05;;;;;;;45.17;27.85;;;;;;;11.44;100.00;99560.69;5013314;28;20033;-68
2022/01/06 10:39:44;;;;;;;39.38;27.60;;;;;;;11.69;100.00;99513.88;5013176;28;20510;-68
2022/01/06 10:42:10;;;;;;;34.85;25.65;;;;;;;12.22;100.00;99580.50;5012758;28;20037;-69
2022/01/06 10:44:49;;;;;;;35.35;25.95;;;;;;;12.60;100.00;99596.72;5013084;28;20057;-68
2022/01/06 10:47:28;;;;;;;46.10;34.90;;;;;;;12.39;100.00;99584.88;4995384;28;20034;-68
2022/01/06 10:49:54;;;;;;;30.42;24.58;;;;;;;12.36;100.00;99590.91;4995258;28;20129;-68
2022/01/06 10:52:26;;;;;;;38.67;28.73;;;;;;;12.31;100.00;99608.13;5012809;28;20116;-69
2022/01/06 10:54:51;;;;;;;63.00;41.35;;;;;;;12.53;100.00;99593.63;4994770;28;20042;-68
2022/01/06 10:57:17;;;;;;;70.65;48.88;;;;;;;12.36;100.00;99557.78;4995051;28;20408;-67
2022/01/06 10:59:44;;;;;;;61.42;47.15;;;;;;;12.53;100.00;99545.16;4995073;28;20037;-68
2022/01/06 11:02:24;;;;;;;36.30;28.02;;;;;;;12.15;100.00;99500.91;5012910;28;20058;-68
2022/01/06 11:04:50;;;;;;;65.75;47.80;;;;;;;12.57;100.00;99581.56;4994758;28;20467;-69
2022/01/06 11:07:16;;;;;;;53.97;37.63;;;;;;;12.39;100.00;99541.53;4994641;28;20071;-69
2022/01/06 11:09:46;;;;;;;35.08;26.58;;;;;;;12.43;100.00;99584.69;4994713;28;20515;-68
2022/01/06 11:12:30;;;;;;;31.45;24.17;;;;;;;12.30;100.00;99552.94;5012607;28;20038;-68
2022/01/06 11:14:56;;;;;;;29.73;23.10;;;;;;;12.41;100.00;99548.25;5012602;28;20184;-68
2022/01/06 11:17:24;;;;;;;81.68;45.38;;;;;;;12.71;100.00;99557.13;5012336;28;20025;-68
2022/01/06 11:19:51;;;;;;;147.43;72.95;;;;;;;13.08;100.00;99571.66;5012304;28;20029;-68
2022/01/06 11:22:23;;;;;;;30.05;22.40;;;;;;;13.11;100.00;99534.97;4994445;28;20021;-68
2022/01/06 11:24:56;;;;;;;30.50;21.80;;;;;;;13.10;100.00;99521.38;5012364;28;20480;-68